sensor_id;sensor_type;location;lat;lon;timestamp;P1;durP1;ratioP1;P2;durP2;ratioP2
9322;SDS011;4700;48.822;9.270;2022-09-14T00:00:14;2.90;;;2.40;;
9322;SDS011;4700;48.822;9.270;2022-09-14T00:03:00;2.70;;;2.50;;
9322;SDS011;4700;48.822;9.270;2022-09-14T00:05:45;3.27;;;2.97;;
9322;SDS011;4700;48.822;9.270;2022-09-14T00:08:31;5.10;;;2.63;;
9322;SDS011;4700;48.822;9.270;2022-09-14T00:11:17;2.50;;;2.30;;
9322;SDS011;4700;48.822;9.270;2022-09-14T00:14:05;2.07;;;1.97;;
9322;SDS011;4700;48.822;9.270;2022-09-14T00:16:50;3.00;;;2.20;;
9322;SDS011;4700;48.822;9.270;2022-09-14T00:19:36;2.00;;;1.90;;
9322;SDS011;4700;48.822;9.270;2022-09-14T00:22:22;2.63;;;2.43;;
9322;SDS011;4700;48.822;9.270;2022-09-14T00:25:08;2.90;;;2.50;;
9322;SDS011;4700;48.822;9.270;2022-09-14T00:27:54;2.90;;;1.90;;
9322;SDS011;4700;48.822;9.270;2022-09-14T00:30:41;2.00;;;1.90;;
9322;SDS011;4700;48.822;9.270;2022-09-14T00:33:27;2.40;;;2.20;;
9322;SDS011;4700;48.822;9.270;2022-09-14T00:36:14;3.33;;;2.27;;
9322;SDS011;4700;48.822;9.270;2022-09-14T00:39:01;2.43;;;2.20;;
9322;SDS011;4700;48.822;9.270;2022-09-14T00:41:48;6.60;;;2.27;;
9322;SDS011;4700;48.822;9.270;2022-09-14T00:47:48;2.40;;;2.10;;
9322;SDS011;4700;48.822;9.270;2022-09-14T00:50:36;2.50;;;2.30;;
9322;SDS011;4700;48.822;9.270;2022-09-14T00:53:22;2.53;;;2.20;;
9322;SDS011;4700;48.822;9.270;2022-09-14T00:56:07;5.17;;;2.60;;
9322;SDS011;4700;48.822;9.270;2022-09-14T00:58:53;2.17;;;1.67;;
9322;SDS011;4700;48.822;9.270;2022-09-14T01:01:42;3.20;;;2.27;;
9322;SDS011;4700;48.822;9.270;2022-09-14T01:04:32;3.17;;;2.10;;
9322;SDS011;4700;48.822;9.270;2022-09-14T01:07:28;2.47;;;2.30;;
9322;SDS011;4700;48.822;9.270;2022-09-14T01:10:28;2.20;;;2.00;;
9322;SDS011;4700;48.822;9.270;2022-09-14T01:13:30;2.40;;;2.10;;
9322;SDS011;4700;48.822;9.270;2022-09-14T01:16:26;2.07;;;1.87;;
9322;SDS011;4700;48.822;9.270;2022-09-14T01:19:21;4.80;;;2.20;;
9322;SDS011;4700;48.822;9.270;2022-09-14T01:22:11;4.50;;;2.57;;
9322;SDS011;4700;48.822;9.270;2022-09-14T01:25:29;2.40;;;2.20;;
9322;SDS011;4700;48.822;9.270;2022-09-14T01:28:30;2.90;;;2.70;;
9322;SDS011;4700;48.822;9.270;2022-09-14T01:31:20;3.87;;;2.30;;
9322;SDS011;4700;48.822;9.270;2022-09-14T01:34:13;2.50;;;2.30;;
9322;SDS011;4700;48.822;9.270;2022-09-14T01:37:03;3.87;;;2.83;;
9322;SDS011;4700;48.822;9.270;2022-09-14T01:39:56;13.70;;;5.30;;
9322;SDS011;4700;48.822;9.270;2022-09-14T01:42:48;8.23;;;4.90;;
9322;SDS011;4700;48.822;9.270;2022-09-14T01:45:38;6.40;;;4.50;;
9322;SDS011;4700;48.822;9.270;2022-09-14T01:48:29;7.27;;;3.60;;
9322;SDS011;4700;48.822;9.270;2022-09-14T01:51:19;7.00;;;5.30;;
9322;SDS011;4700;48.822;9.270;2022-09-14T01:54:15;4.70;;;4.30;;
9322;SDS011;4700;48.822;9.270;2022-09-14T01:57:07;4.90;;;4.40;;
9322;SDS011;4700;48.822;9.270;2022-09-14T01:59:58;6.07;;;5.10;;
9322;SDS011;4700;48.822;9.270;2022-09-14T02:02:51;7.33;;;4.87;;
9322;SDS011;4700;48.822;9.270;2022-09-14T02:05:39;5.97;;;4.60;;
9322;SDS011;4700;48.822;9.270;2022-09-14T02:08:31;6.97;;;4.47;;
9322;SDS011;4700;48.822;9.270;2022-09-14T02:11:18;4.73;;;4.33;;
9322;SDS011;4700;48.822;9.270;2022-09-14T02:14:04;5.63;;;5.13;;
9322;SDS011;4700;48.822;9.270;2022-09-14T02:16:50;9.37;;;4.90;;
9322;SDS011;4700;48.822;9.270;2022-09-14T02:19:42;7.10;;;3.83;;
9322;SDS011;4700;48.822;9.270;2022-09-14T02:22:32;4.60;;;3.70;;
9322;SDS011;4700;48.822;9.270;2022-09-14T02:25:18;5.83;;;3.57;;
9322;SDS011;4700;48.822;9.270;2022-09-14T02:28:07;5.13;;;3.70;;
9322;SDS011;4700;48.822;9.270;2022-09-14T02:30:54;7.20;;;4.77;;
9322;SDS011;4700;48.822;9.270;2022-09-14T02:33:50;5.63;;;4.00;;
9322;SDS011;4700;48.822;9.270;2022-09-14T02:36:45;8.13;;;4.73;;
9322;SDS011;4700;48.822;9.270;2022-09-14T02:39:36;5.53;;;4.93;;
9322;SDS011;4700;48.822;9.270;2022-09-14T02:42:38;9.33;;;4.93;;
9322;SDS011;4700;48.822;9.270;2022-09-14T02:45:32;5.87;;;5.30;;
9322;SDS011;4700;48.822;9.270;2022-09-14T02:48:25;5.53;;;5.13;;
9322;SDS011;4700;48.822;9.270;2022-09-14T02:51:20;7.77;;;5.60;;
9322;SDS011;4700;48.822;9.270;2022-09-14T02:54:13;6.53;;;4.60;;
9322;SDS011;4700;48.822;9.270;2022-09-14T02:57:02;7.70;;;4.50;;
9322;SDS011;4700;48.822;9.270;2022-09-14T02:59:48;7.40;;;4.37;;
9322;SDS011;4700;48.822;9.270;2022-09-14T03:02:33;10.07;;;5.77;;
9322;SDS011;4700;48.822;9.270;2022-09-14T03:05:19;6.00;;;5.40;;
9322;SDS011;4700;48.822;9.270;2022-09-14T03:08:05;6.80;;;5.30;;
9322;SDS011;4700;48.822;9.270;2022-09-14T03:10:52;8.20;;;7.40;;
9322;SDS011;4700;48.822;9.270;2022-09-14T03:13:38;10.07;;;8.30;;
9322;SDS011;4700;48.822;9.270;2022-09-14T03:16:24;7.83;;;7.10;;
9322;SDS011;4700;48.822;9.270;2022-09-14T03:19:09;11.47;;;7.57;;
9322;SDS011;4700;48.822;9.270;2022-09-14T03:21:55;9.80;;;7.23;;
9322;SDS011;4700;48.822;9.270;2022-09-14T03:24:41;8.70;;;7.90;;
9322;SDS011;4700;48.822;9.270;2022-09-14T03:27:28;9.87;;;8.87;;
9322;SDS011;4700;48.822;9.270;2022-09-14T03:30:13;12.70;;;8.50;;
9322;SDS011;4700;48.822;9.270;2022-09-14T03:32:59;11.53;;;8.50;;
9322;SDS011;4700;48.822;9.270;2022-09-14T03:35:45;8.40;;;7.70;;
9322;SDS011;4700;48.822;9.270;2022-09-14T03:38:31;9.37;;;7.73;;
9322;SDS011;4700;48.822;9.270;2022-09-14T03:41:17;12.23;;;8.13;;
9322;SDS011;4700;48.822;9.270;2022-09-14T03:44:04;9.47;;;6.93;;
9322;SDS011;4700;48.822;9.270;2022-09-14T03:46:50;7.40;;;6.43;;
9322;SDS011;4700;48.822;9.270;2022-09-14T03:49:35;10.53;;;7.03;;
9322;SDS011;4700;48.822;9.270;2022-09-14T03:52:21;9.43;;;7.73;;
9322;SDS011;4700;48.822;9.270;2022-09-14T03:55:07;10.50;;;7.70;;
9322;SDS011;4700;48.822;9.270;2022-09-14T03:57:54;7.83;;;6.87;;
9322;SDS011;4700;48.822;9.270;2022-09-14T04:00:41;8.47;;;7.57;;
9322;SDS011;4700;48.822;9.270;2022-09-14T04:03:27;11.03;;;8.40;;
9322;SDS011;4700;48.822;9.270;2022-09-14T04:06:13;9.07;;;8.17;;
9322;SDS011;4700;48.822;9.270;2022-09-14T04:09:02;9.57;;;7.50;;
9322;SDS011;4700;48.822;9.270;2022-09-14T04:11:48;10.07;;;7.70;;
9322;SDS011;4700;48.822;9.270;2022-09-14T04:14:33;12.23;;;8.90;;
9322;SDS011;4700;48.822;9.270;2022-09-14T04:17:21;11.20;;;8.20;;
9322;SDS011;4700;48.822;9.270;2022-09-14T04:20:09;11.50;;;8.20;;
9322;SDS011;4700;48.822;9.270;2022-09-14T04:22:55;9.03;;;8.00;;
9322;SDS011;4700;48.822;9.270;2022-09-14T04:25:41;10.67;;;8.33;;
9322;SDS011;4700;48.822;9.270;2022-09-14T04:28:27;9.13;;;8.00;;
9322;SDS011;4700;48.822;9.270;2022-09-14T04:31:13;10.90;;;10.00;;
9322;SDS011;4700;48.822;9.270;2022-09-14T04:34:01;9.57;;;8.73;;
9322;SDS011;4700;48.822;9.270;2022-09-14T04:36:47;10.30;;;9.30;;
9322;SDS011;4700;48.822;9.270;2022-09-14T04:39:33;9.23;;;7.73;;
9322;SDS011;4700;48.822;9.270;2022-09-14T04:42:18;11.03;;;8.97;;
9322;SDS011;4700;48.822;9.270;2022-09-14T04:45:04;9.53;;;8.13;;
9322;SDS011;4700;48.822;9.270;2022-09-14T04:47:50;10.80;;;8.67;;
9322;SDS011;4700;48.822;9.270;2022-09-14T04:50:38;10.10;;;9.03;;
9322;SDS011;4700;48.822;9.270;2022-09-14T04:53:24;11.53;;;8.70;;
9322;SDS011;4700;48.822;9.270;2022-09-14T04:56:10;11.33;;;10.13;;
9322;SDS011;4700;48.822;9.270;2022-09-14T04:58:57;10.03;;;8.53;;
9322;SDS011;4700;48.822;9.270;2022-09-14T05:01:44;10.13;;;8.43;;
9322;SDS011;4700;48.822;9.270;2022-09-14T05:04:31;9.73;;;8.77;;
9322;SDS011;4700;48.822;9.270;2022-09-14T05:07:18;10.93;;;9.83;;
9322;SDS011;4700;48.822;9.270;2022-09-14T05:10:04;10.20;;;9.23;;
9322;SDS011;4700;48.822;9.270;2022-09-14T05:12:51;11.03;;;9.70;;
9322;SDS011;4700;48.822;9.270;2022-09-14T05:15:37;11.10;;;10.10;;
9322;SDS011;4700;48.822;9.270;2022-09-14T05:18:26;10.40;;;9.30;;
9322;SDS011;4700;48.822;9.270;2022-09-14T05:21:13;12.50;;;11.20;;
9322;SDS011;4700;48.822;9.270;2022-09-14T05:24:02;10.43;;;9.43;;
9322;SDS011;4700;48.822;9.270;2022-09-14T05:26:50;11.70;;;10.70;;
9322;SDS011;4700;48.822;9.270;2022-09-14T05:29:37;11.83;;;10.87;;
9322;SDS011;4700;48.822;9.270;2022-09-14T05:32:23;14.20;;;10.33;;
9322;SDS011;4700;48.822;9.270;2022-09-14T05:35:08;14.10;;;12.50;;
9322;SDS011;4700;48.822;9.270;2022-09-14T05:37:54;13.60;;;12.10;;
9322;SDS011;4700;48.822;9.270;2022-09-14T05:40:42;13.67;;;12.50;;
9322;SDS011;4700;48.822;9.270;2022-09-14T05:43:28;16.90;;;13.90;;
9322;SDS011;4700;48.822;9.270;2022-09-14T05:46:14;13.90;;;12.90;;
9322;SDS011;4700;48.822;9.270;2022-09-14T05:49:03;12.73;;;11.63;;
9322;SDS011;4700;48.822;9.270;2022-09-14T05:51:51;10.87;;;9.87;;
9322;SDS011;4700;48.822;9.270;2022-09-14T05:54:37;12.00;;;10.87;;
9322;SDS011;4700;48.822;9.270;2022-09-14T05:57:24;11.80;;;10.70;;
9322;SDS011;4700;48.822;9.270;2022-09-14T06:00:11;13.47;;;12.27;;
9322;SDS011;4700;48.822;9.270;2022-09-14T06:02:58;11.40;;;10.43;;
9322;SDS011;4700;48.822;9.270;2022-09-14T06:05:43;15.73;;;12.30;;
9322;SDS011;4700;48.822;9.270;2022-09-14T06:08:29;15.07;;;13.60;;
9322;SDS011;4700;48.822;9.270;2022-09-14T06:11:16;14.27;;;13.03;;
9322;SDS011;4700;48.822;9.270;2022-09-14T06:14:06;13.80;;;12.33;;
9322;SDS011;4700;48.822;9.270;2022-09-14T06:16:51;14.60;;;13.30;;
9322;SDS011;4700;48.822;9.270;2022-09-14T06:19:37;13.77;;;12.40;;
9322;SDS011;4700;48.822;9.270;2022-09-14T06:22:22;13.23;;;11.90;;
9322;SDS011;4700;48.822;9.270;2022-09-14T06:25:10;12.30;;;10.50;;
9322;SDS011;4700;48.822;9.270;2022-09-14T06:27:56;18.90;;;13.40;;
9322;SDS011;4700;48.822;9.270;2022-09-14T06:30:46;15.53;;;12.60;;
9322;SDS011;4700;48.822;9.270;2022-09-14T06:33:32;10.63;;;9.50;;
9322;SDS011;4700;48.822;9.270;2022-09-14T06:36:18;9.00;;;8.30;;
9322;SDS011;4700;48.822;9.270;2022-09-14T06:39:05;23.10;;;20.60;;
9322;SDS011;4700;48.822;9.270;2022-09-14T06:41:51;17.70;;;12.80;;
9322;SDS011;4700;48.822;9.270;2022-09-14T06:44:39;11.03;;;9.30;;
9322;SDS011;4700;48.822;9.270;2022-09-14T06:47:29;9.20;;;7.97;;
9322;SDS011;4700;48.822;9.270;2022-09-14T06:50:16;11.10;;;8.60;;
9322;SDS011;4700;48.822;9.270;2022-09-14T06:53:02;13.00;;;10.00;;
9322;SDS011;4700;48.822;9.270;2022-09-14T06:55:48;20.33;;;12.30;;
9322;SDS011;4700;48.822;9.270;2022-09-14T06:58:34;12.83;;;9.93;;
9322;SDS011;4700;48.822;9.270;2022-09-14T07:01:20;9.27;;;8.33;;
9322;SDS011;4700;48.822;9.270;2022-09-14T07:04:10;7.90;;;7.20;;
9322;SDS011;4700;48.822;9.270;2022-09-14T07:06:58;7.80;;;7.20;;
9322;SDS011;4700;48.822;9.270;2022-09-14T07:09:47;8.37;;;7.77;;
9322;SDS011;4700;48.822;9.270;2022-09-14T07:12:33;9.50;;;6.93;;
9322;SDS011;4700;48.822;9.270;2022-09-14T07:15:19;10.57;;;7.33;;
9322;SDS011;4700;48.822;9.270;2022-09-14T07:18:05;9.43;;;7.63;;
9322;SDS011;4700;48.822;9.270;2022-09-14T07:20:52;19.90;;;7.90;;
9322;SDS011;4700;48.822;9.270;2022-09-14T07:23:39;14.80;;;8.17;;
9322;SDS011;4700;48.822;9.270;2022-09-14T07:26:27;8.63;;;5.83;;
9322;SDS011;4700;48.822;9.270;2022-09-14T07:29:14;7.80;;;5.07;;
9322;SDS011;4700;48.822;9.270;2022-09-14T07:32:04;6.83;;;4.60;;
9322;SDS011;4700;48.822;9.270;2022-09-14T07:34:50;7.93;;;3.97;;
9322;SDS011;4700;48.822;9.270;2022-09-14T07:37:38;10.73;;;4.77;;
9322;SDS011;4700;48.822;9.270;2022-09-14T07:40:23;7.83;;;5.50;;
9322;SDS011;4700;48.822;9.270;2022-09-14T07:43:10;30.57;;;6.87;;
9322;SDS011;4700;48.822;9.270;2022-09-14T07:46:00;8.17;;;4.53;;
9322;SDS011;4700;48.822;9.270;2022-09-14T07:48:47;5.07;;;4.50;;
9322;SDS011;4700;48.822;9.270;2022-09-14T07:51:33;5.10;;;4.30;;
9322;SDS011;4700;48.822;9.270;2022-09-14T07:54:22;7.17;;;4.87;;
9322;SDS011;4700;48.822;9.270;2022-09-14T07:57:08;11.30;;;4.97;;
9322;SDS011;4700;48.822;9.270;2022-09-14T07:59:56;4.93;;;3.27;;
9322;SDS011;4700;48.822;9.270;2022-09-14T08:02:43;5.17;;;3.07;;
9322;SDS011;4700;48.822;9.270;2022-09-14T08:05:39;4.40;;;2.80;;
9322;SDS011;4700;48.822;9.270;2022-09-14T08:08:26;12.17;;;4.80;;
9322;SDS011;4700;48.822;9.270;2022-09-14T08:11:21;20.93;;;7.00;;
9322;SDS011;4700;48.822;9.270;2022-09-14T08:14:18;3.57;;;2.83;;
9322;SDS011;4700;48.822;9.270;2022-09-14T08:17:24;4.20;;;2.43;;
9322;SDS011;4700;48.822;9.270;2022-09-14T08:20:13;4.50;;;2.70;;
9322;SDS011;4700;48.822;9.270;2022-09-14T08:23:01;9.80;;;3.73;;
9322;SDS011;4700;48.822;9.270;2022-09-14T08:25:51;35.80;;;5.50;;
9322;SDS011;4700;48.822;9.270;2022-09-14T08:28:38;16.70;;;7.00;;
9322;SDS011;4700;48.822;9.270;2022-09-14T08:31:25;6.10;;;2.93;;
9322;SDS011;4700;48.822;9.270;2022-09-14T08:34:12;43.63;;;7.87;;
9322;SDS011;4700;48.822;9.270;2022-09-14T08:36:59;3.23;;;2.93;;
9322;SDS011;4700;48.822;9.270;2022-09-14T08:39:45;10.87;;;3.80;;
9322;SDS011;4700;48.822;9.270;2022-09-14T08:42:31;114.17;;;15.63;;
9322;SDS011;4700;48.822;9.270;2022-09-14T08:45:20;7.73;;;4.17;;
9322;SDS011;4700;48.822;9.270;2022-09-14T08:48:09;10.63;;;3.30;;
9322;SDS011;4700;48.822;9.270;2022-09-14T08:51:01;3.73;;;3.10;;
9322;SDS011;4700;48.822;9.270;2022-09-14T08:53:49;7.57;;;3.93;;
9322;SDS011;4700;48.822;9.270;2022-09-14T08:56:38;4.90;;;3.20;;
9322;SDS011;4700;48.822;9.270;2022-09-14T08:59:32;5.10;;;3.30;;
9322;SDS011;4700;48.822;9.270;2022-09-14T09:02:35;4.57;;;3.20;;
9322;SDS011;4700;48.822;9.270;2022-09-14T09:05:47;9.03;;;3.73;;
9322;SDS011;4700;48.822;9.270;2022-09-14T09:08:38;6.63;;;3.00;;
9322;SDS011;4700;48.822;9.270;2022-09-14T09:11:35;6.20;;;3.40;;
9322;SDS011;4700;48.822;9.270;2022-09-14T09:14:25;6.00;;;3.27;;
9322;SDS011;4700;48.822;9.270;2022-09-14T09:17:16;5.50;;;3.00;;
9322;SDS011;4700;48.822;9.270;2022-09-14T09:20:08;5.40;;;2.70;;
9322;SDS011;4700;48.822;9.270;2022-09-14T09:22:59;15.23;;;3.30;;
9322;SDS011;4700;48.822;9.270;2022-09-14T09:25:54;3.90;;;2.30;;
9322;SDS011;4700;48.822;9.270;2022-09-14T09:28:44;5.23;;;2.43;;
9322;SDS011;4700;48.822;9.270;2022-09-14T09:31:32;2.70;;;2.17;;
9322;SDS011;4700;48.822;9.270;2022-09-14T09:34:22;2.33;;;1.90;;
9322;SDS011;4700;48.822;9.270;2022-09-14T09:37:13;4.00;;;2.00;;
9322;SDS011;4700;48.822;9.270;2022-09-14T09:40:01;3.93;;;2.23;;
9322;SDS011;4700;48.822;9.270;2022-09-14T09:43:06;5.43;;;4.77;;
9322;SDS011;4700;48.822;9.270;2022-09-14T09:45:56;3.70;;;2.37;;
9322;SDS011;4700;48.822;9.270;2022-09-14T09:48:44;4.00;;;2.80;;
9322;SDS011;4700;48.822;9.270;2022-09-14T09:51:31;5.27;;;3.10;;
9322;SDS011;4700;48.822;9.270;2022-09-14T09:54:25;6.57;;;2.83;;
9322;SDS011;4700;48.822;9.270;2022-09-14T09:57:18;7.70;;;2.93;;
9322;SDS011;4700;48.822;9.270;2022-09-14T10:00:08;2.93;;;2.43;;
9322;SDS011;4700;48.822;9.270;2022-09-14T10:03:02;109.47;;;12.30;;
9322;SDS011;4700;48.822;9.270;2022-09-14T10:06:11;18.60;;;3.93;;
9322;SDS011;4700;48.822;9.270;2022-09-14T10:08:59;11.67;;;3.03;;
9322;SDS011;4700;48.822;9.270;2022-09-14T10:11:54;2.90;;;2.33;;
9322;SDS011;4700;48.822;9.270;2022-09-14T10:14:44;3.60;;;2.67;;
9322;SDS011;4700;48.822;9.270;2022-09-14T10:17:31;5.20;;;2.77;;
9322;SDS011;4700;48.822;9.270;2022-09-14T10:20:19;3.77;;;2.73;;
9322;SDS011;4700;48.822;9.270;2022-09-14T10:23:20;6.67;;;5.97;;
9322;SDS011;4700;48.822;9.270;2022-09-14T10:26:16;4.00;;;3.10;;
9322;SDS011;4700;48.822;9.270;2022-09-14T10:32:19;10.03;;;5.30;;
9322;SDS011;4700;48.822;9.270;2022-09-14T10:35:12;3.03;;;2.53;;
9322;SDS011;4700;48.822;9.270;2022-09-14T10:38:03;7.80;;;2.60;;
9322;SDS011;4700;48.822;9.270;2022-09-14T10:41:11;5.07;;;2.70;;
9322;SDS011;4700;48.822;9.270;2022-09-14T10:44:24;4.83;;;2.80;;
9322;SDS011;4700;48.822;9.270;2022-09-14T10:50:40;3.67;;;2.33;;
9322;SDS011;4700;48.822;9.270;2022-09-14T10:53:44;6.17;;;3.00;;
9322;SDS011;4700;48.822;9.270;2022-09-14T10:56:40;4.87;;;4.37;;
9322;SDS011;4700;48.822;9.270;2022-09-14T10:59:42;7.00;;;3.67;;
9322;SDS011;4700;48.822;9.270;2022-09-14T11:02:43;5.53;;;2.33;;
9322;SDS011;4700;48.822;9.270;2022-09-14T11:05:41;5.33;;;2.90;;
9322;SDS011;4700;48.822;9.270;2022-09-14T11:08:32;3.27;;;2.37;;
9322;SDS011;4700;48.822;9.270;2022-09-14T11:11:30;3.00;;;2.67;;
9322;SDS011;4700;48.822;9.270;2022-09-14T11:14:35;4.47;;;2.60;;
9322;SDS011;4700;48.822;9.270;2022-09-14T11:17:38;3.17;;;2.50;;
9322;SDS011;4700;48.822;9.270;2022-09-14T11:20:37;2.27;;;2.07;;
9322;SDS011;4700;48.822;9.270;2022-09-14T11:23:32;91.83;;;11.60;;
9322;SDS011;4700;48.822;9.270;2022-09-14T11:26:26;6.50;;;2.17;;
9322;SDS011;4700;48.822;9.270;2022-09-14T11:29:20;10.03;;;3.07;;
9322;SDS011;4700;48.822;9.270;2022-09-14T11:32:10;9.43;;;3.00;;
9322;SDS011;4700;48.822;9.270;2022-09-14T11:35:01;10.23;;;2.93;;
9322;SDS011;4700;48.822;9.270;2022-09-14T11:37:56;3.37;;;2.37;;
9322;SDS011;4700;48.822;9.270;2022-09-14T11:40:45;3.43;;;2.30;;
9322;SDS011;4700;48.822;9.270;2022-09-14T11:43:36;6.87;;;3.40;;
9322;SDS011;4700;48.822;9.270;2022-09-14T11:46:29;2.60;;;2.40;;
9322;SDS011;4700;48.822;9.270;2022-09-14T11:49:21;3.70;;;2.70;;
9322;SDS011;4700;48.822;9.270;2022-09-14T11:52:12;4.03;;;1.70;;
9322;SDS011;4700;48.822;9.270;2022-09-14T11:55:09;3.03;;;2.20;;
9322;SDS011;4700;48.822;9.270;2022-09-14T11:58:00;5.27;;;3.23;;
9322;SDS011;4700;48.822;9.270;2022-09-14T12:00:59;3.03;;;2.40;;
9322;SDS011;4700;48.822;9.270;2022-09-14T12:04:03;3.33;;;2.30;;
9322;SDS011;4700;48.822;9.270;2022-09-14T12:07:01;2.63;;;2.43;;
9322;SDS011;4700;48.822;9.270;2022-09-14T12:09:47;5.20;;;2.53;;
9322;SDS011;4700;48.822;9.270;2022-09-14T12:12:27;9.20;;;2.43;;
9322;SDS011;4700;48.822;9.270;2022-09-14T12:15:32;6.00;;;2.93;;
9322;SDS011;4700;48.822;9.270;2022-09-14T12:18:20;6.90;;;2.37;;
9322;SDS011;4700;48.822;9.270;2022-09-14T12:21:15;4.30;;;2.40;;
9322;SDS011;4700;48.822;9.270;2022-09-14T12:24:12;7.43;;;3.10;;
9322;SDS011;4700;48.822;9.270;2022-09-14T12:27:11;2.53;;;2.33;;
9322;SDS011;4700;48.822;9.270;2022-09-14T12:29:59;2.83;;;2.63;;
9322;SDS011;4700;48.822;9.270;2022-09-14T12:32:45;3.20;;;2.70;;
9322;SDS011;4700;48.822;9.270;2022-09-14T12:35:42;2.97;;;2.10;;
9322;SDS011;4700;48.822;9.270;2022-09-14T12:38:40;2.37;;;2.17;;
9322;SDS011;4700;48.822;9.270;2022-09-14T12:42:03;3.67;;;2.57;;
9322;SDS011;4700;48.822;9.270;2022-09-14T12:51:43;3.93;;;2.80;;
9322;SDS011;4700;48.822;9.270;2022-09-14T12:54:35;3.23;;;2.60;;
9322;SDS011;4700;48.822;9.270;2022-09-14T12:57:33;6.33;;;4.10;;
9322;SDS011;4700;48.822;9.270;2022-09-14T13:00:25;9.97;;;3.33;;
9322;SDS011;4700;48.822;9.270;2022-09-14T13:03:19;4.20;;;2.70;;
9322;SDS011;4700;48.822;9.270;2022-09-14T13:06:22;6.70;;;2.90;;
9322;SDS011;4700;48.822;9.270;2022-09-14T13:09:16;5.07;;;3.20;;
9322;SDS011;4700;48.822;9.270;2022-09-14T13:12:05;3.70;;;3.30;;
9322;SDS011;4700;48.822;9.270;2022-09-14T13:14:55;3.63;;;2.70;;
9322;SDS011;4700;48.822;9.270;2022-09-14T13:17:54;3.87;;;3.47;;
9322;SDS011;4700;48.822;9.270;2022-09-14T13:20:48;5.30;;;3.17;;
9322;SDS011;4700;48.822;9.270;2022-09-14T13:23:36;5.90;;;3.10;;
9322;SDS011;4700;48.822;9.270;2022-09-14T13:26:24;4.80;;;3.40;;
9322;SDS011;4700;48.822;9.270;2022-09-14T13:29:12;6.90;;;3.20;;
9322;SDS011;4700;48.822;9.270;2022-09-14T13:32:02;3.03;;;2.70;;
9322;SDS011;4700;48.822;9.270;2022-09-14T13:34:48;4.33;;;2.60;;
9322;SDS011;4700;48.822;9.270;2022-09-14T13:37:37;3.53;;;2.13;;
9322;SDS011;4700;48.822;9.270;2022-09-14T13:40:23;2.60;;;2.40;;
9322;SDS011;4700;48.822;9.270;2022-09-14T13:43:10;3.20;;;2.40;;
9322;SDS011;4700;48.822;9.270;2022-09-14T13:45:57;2.93;;;2.57;;
9322;SDS011;4700;48.822;9.270;2022-09-14T13:48:44;4.33;;;2.93;;
9322;SDS011;4700;48.822;9.270;2022-09-14T13:51:30;2.30;;;2.10;;
9322;SDS011;4700;48.822;9.270;2022-09-14T13:54:17;2.40;;;2.20;;
9322;SDS011;4700;48.822;9.270;2022-09-14T13:57:12;4.70;;;1.97;;
9322;SDS011;4700;48.822;9.270;2022-09-14T14:00:05;3.03;;;1.53;;
9322;SDS011;4700;48.822;9.270;2022-09-14T14:03:00;3.00;;;2.17;;
9322;SDS011;4700;48.822;9.270;2022-09-14T14:05:49;1.53;;;1.43;;
9322;SDS011;4700;48.822;9.270;2022-09-14T14:08:35;1.97;;;1.60;;
9322;SDS011;4700;48.822;9.270;2022-09-14T14:11:26;1.50;;;1.37;;
9322;SDS011;4700;48.822;9.270;2022-09-14T14:14:19;2.60;;;1.40;;
9322;SDS011;4700;48.822;9.270;2022-09-14T14:20:27;2.40;;;1.30;;
9322;SDS011;4700;48.822;9.270;2022-09-14T14:23:19;2.70;;;2.13;;
9322;SDS011;4700;48.822;9.270;2022-09-14T14:26:07;1.70;;;1.60;;
9322;SDS011;4700;48.822;9.270;2022-09-14T14:28:53;5.60;;;1.60;;
9322;SDS011;4700;48.822;9.270;2022-09-14T14:31:52;1.63;;;1.30;;
9322;SDS011;4700;48.822;9.270;2022-09-14T14:34:39;2.30;;;2.10;;
9322;SDS011;4700;48.822;9.270;2022-09-14T14:37:25;3.33;;;1.97;;
9322;SDS011;4700;48.822;9.270;2022-09-14T14:40:13;1.93;;;1.60;;
9322;SDS011;4700;48.822;9.270;2022-09-14T14:42:59;2.67;;;2.20;;
9322;SDS011;4700;48.822;9.270;2022-09-14T14:45:47;2.87;;;1.90;;
9322;SDS011;4700;48.822;9.270;2022-09-14T14:48:39;3.00;;;1.87;;
9322;SDS011;4700;48.822;9.270;2022-09-14T14:51:26;3.47;;;1.53;;
9322;SDS011;4700;48.822;9.270;2022-09-14T14:54:11;2.50;;;2.07;;
9322;SDS011;4700;48.822;9.270;2022-09-14T14:57:01;2.20;;;1.60;;
9322;SDS011;4700;48.822;9.270;2022-09-14T14:59:47;6.30;;;2.47;;
9322;SDS011;4700;48.822;9.270;2022-09-14T15:02:35;2.70;;;1.80;;
9322;SDS011;4700;48.822;9.270;2022-09-14T15:05:21;1.53;;;1.43;;
9322;SDS011;4700;48.822;9.270;2022-09-14T15:08:07;3.50;;;2.00;;
9322;SDS011;4700;48.822;9.270;2022-09-14T15:10:54;2.83;;;1.90;;
9322;SDS011;4700;48.822;9.270;2022-09-14T15:13:42;5.60;;;2.60;;
9322;SDS011;4700;48.822;9.270;2022-09-14T15:16:30;3.27;;;1.90;;
9322;SDS011;4700;48.822;9.270;2022-09-14T15:19:16;2.10;;;1.90;;
9322;SDS011;4700;48.822;9.270;2022-09-14T15:22:02;3.87;;;2.23;;
9322;SDS011;4700;48.822;9.270;2022-09-14T15:24:48;4.23;;;2.07;;
9322;SDS011;4700;48.822;9.270;2022-09-14T15:27:35;3.30;;;1.40;;
9322;SDS011;4700;48.822;9.270;2022-09-14T15:30:23;2.90;;;2.20;;
9322;SDS011;4700;48.822;9.270;2022-09-14T15:33:09;2.90;;;2.27;;
9322;SDS011;4700;48.822;9.270;2022-09-14T15:35:54;1.90;;;1.70;;
9322;SDS011;4700;48.822;9.270;2022-09-14T15:38:41;3.27;;;1.80;;
9322;SDS011;4700;48.822;9.270;2022-09-14T15:41:26;1.83;;;1.50;;
9322;SDS011;4700;48.822;9.270;2022-09-14T15:44:12;1.90;;;1.40;;
9322;SDS011;4700;48.822;9.270;2022-09-14T15:47:00;1.80;;;1.67;;
9322;SDS011;4700;48.822;9.270;2022-09-14T15:49:46;1.40;;;1.30;;
9322;SDS011;4700;48.822;9.270;2022-09-14T15:52:35;9.40;;;1.50;;
9322;SDS011;4700;48.822;9.270;2022-09-14T15:55:22;2.87;;;1.37;;
9322;SDS011;4700;48.822;9.270;2022-09-14T15:58:08;1.40;;;1.30;;
9322;SDS011;4700;48.822;9.270;2022-09-14T16:00:54;1.60;;;1.30;;
9322;SDS011;4700;48.822;9.270;2022-09-14T16:03:41;1.20;;;1.10;;
9322;SDS011;4700;48.822;9.270;2022-09-14T16:06:27;3.47;;;1.40;;
9322;SDS011;4700;48.822;9.270;2022-09-14T16:09:14;1.30;;;1.20;;
9322;SDS011;4700;48.822;9.270;2022-09-14T16:12:01;1.30;;;1.10;;
9322;SDS011;4700;48.822;9.270;2022-09-14T16:14:47;1.40;;;1.30;;
9322;SDS011;4700;48.822;9.270;2022-09-14T16:17:33;1.63;;;1.00;;
9322;SDS011;4700;48.822;9.270;2022-09-14T16:20:20;1.00;;;1.00;;
9322;SDS011;4700;48.822;9.270;2022-09-14T16:23:06;2.40;;;1.53;;
9322;SDS011;4700;48.822;9.270;2022-09-14T16:25:51;3.40;;;1.57;;
9322;SDS011;4700;48.822;9.270;2022-09-14T16:28:37;2.03;;;1.47;;
9322;SDS011;4700;48.822;9.270;2022-09-14T16:31:26;1.87;;;1.67;;
9322;SDS011;4700;48.822;9.270;2022-09-14T16:34:15;1.53;;;1.43;;
9322;SDS011;4700;48.822;9.270;2022-09-14T16:37:03;2.13;;;1.23;;
9322;SDS011;4700;48.822;9.270;2022-09-14T16:39:49;1.47;;;1.20;;
9322;SDS011;4700;48.822;9.270;2022-09-14T16:42:36;2.73;;;1.63;;
9322;SDS011;4700;48.822;9.270;2022-09-14T16:45:22;1.93;;;1.10;;
9322;SDS011;4700;48.822;9.270;2022-09-14T16:48:08;1.30;;;1.20;;
9322;SDS011;4700;48.822;9.270;2022-09-14T16:50:54;2.03;;;1.83;;
9322;SDS011;4700;48.822;9.270;2022-09-14T16:53:42;2.83;;;1.23;;
9322;SDS011;4700;48.822;9.270;2022-09-14T16:56:29;3.60;;;1.60;;
9322;SDS011;4700;48.822;9.270;2022-09-14T16:59:16;1.33;;;1.20;;
9322;SDS011;4700;48.822;9.270;2022-09-14T17:02:03;1.53;;;1.37;;
9322;SDS011;4700;48.822;9.270;2022-09-14T17:04:49;1.70;;;1.20;;
9322;SDS011;4700;48.822;9.270;2022-09-14T17:07:35;1.70;;;1.60;;
9322;SDS011;4700;48.822;9.270;2022-09-14T17:10:24;1.87;;;1.23;;
9322;SDS011;4700;48.822;9.270;2022-09-14T17:13:10;1.50;;;1.40;;
9322;SDS011;4700;48.822;9.270;2022-09-14T17:15:58;1.17;;;1.07;;
9322;SDS011;4700;48.822;9.270;2022-09-14T17:18:45;1.27;;;1.17;;
9322;SDS011;4700;48.822;9.270;2022-09-14T17:21:34;1.37;;;1.20;;
9322;SDS011;4700;48.822;9.270;2022-09-14T17:24:21;1.53;;;1.43;;
9322;SDS011;4700;48.822;9.270;2022-09-14T17:27:10;1.90;;;1.33;;
9322;SDS011;4700;48.822;9.270;2022-09-14T17:29:56;1.97;;;1.80;;
9322;SDS011;4700;48.822;9.270;2022-09-14T17:32:42;2.20;;;1.30;;
9322;SDS011;4700;48.822;9.270;2022-09-14T17:35:28;2.30;;;1.37;;
9322;SDS011;4700;48.822;9.270;2022-09-14T17:38:13;2.00;;;1.50;;
9322;SDS011;4700;48.822;9.270;2022-09-14T17:40:59;2.13;;;1.43;;
9322;SDS011;4700;48.822;9.270;2022-09-14T17:43:50;1.60;;;1.50;;
9322;SDS011;4700;48.822;9.270;2022-09-14T17:46:37;1.63;;;1.50;;